createdAt,value
2017-11-04T00:01:36.141Z,100840.28
2017-11-04T00:04:07.303Z,100843.30
2017-11-04T00:06:39.206Z,100844.13
2017-11-04T00:09:09.941Z,100837.75
2017-11-04T00:11:39.320Z,100842.43
2017-11-04T00:14:08.351Z,100837.78
2017-11-04T00:16:38.531Z,100840.73
2017-11-04T00:19:07.624Z,100837.30
2017-11-04T00:21:37.578Z,100832.17
2017-11-04T00:24:06.739Z,100830.09
2017-11-04T00:26:36.032Z,100823.69
2017-11-04T00:29:05.641Z,100827.11
2017-11-04T00:31:35.315Z,100831.45
2017-11-04T00:34:04.328Z,100828.02
2017-11-04T00:36:33.063Z,100829.27
2017-11-04T00:39:02.262Z,100830.09
2017-11-04T00:41:31.786Z,100828.40
2017-11-04T00:44:01.134Z,100826.21
2017-11-04T00:46:30.705Z,100820.29
2017-11-04T00:49:00.020Z,100820.70
2017-11-04T00:51:28.876Z,100815.12
2017-11-04T00:53:57.673Z,100808.30
2017-11-04T00:56:26.446Z,100808.33
2017-11-04T00:58:55.105Z,100810.00
2017-11-04T01:01:24.178Z,100800.58
2017-11-04T01:03:52.903Z,100794.61
2017-11-04T01:06:21.809Z,100794.61
2017-11-04T01:08:50.650Z,100802.72
2017-11-04T01:11:20.186Z,100786.05
2017-11-04T01:13:49.649Z,100782.21
2017-11-04T01:16:18.717Z,100789.48
2017-11-04T01:18:47.844Z,100783.49
2017-11-04T01:21:16.979Z,100777.95
2017-11-04T01:23:47.018Z,100781.38
2017-11-04T01:26:15.885Z,100777.11
2017-11-04T01:28:45.161Z,100782.66
2017-11-04T01:31:13.827Z,100780.09
2017-11-04T01:33:42.824Z,100783.52
2017-11-04T01:36:11.513Z,100786.99
2017-11-04T01:38:40.182Z,100783.56
2017-11-04T01:41:08.920Z,100781.48
2017-11-04T01:43:37.599Z,100780.27
2017-11-04T01:46:06.340Z,100775.59
2017-11-04T01:48:34.264Z,100774.42
2017-11-04T01:51:02.642Z,100758.23
2017-11-04T01:53:30.187Z,100768.08
2017-11-04T01:55:58.845Z,100765.13
2017-11-04T01:58:27.551Z,100763.47
2017-11-04T02:00:56.254Z,100766.55
2017-11-04T02:03:24.950Z,100768.25
2017-11-04T02:05:53.376Z,100758.97
2017-11-04T02:08:21.743Z,100763.27
2017-11-04T02:10:50.405Z,100756.55
2017-11-04T02:13:19.113Z,100755.41
2017-11-04T02:15:47.781Z,100751.11
2017-11-04T02:18:16.507Z,100754.12
2017-11-04T02:20:45.526Z,100750.83
2017-11-04T02:23:14.181Z,100738.91
2017-11-04T02:25:42.922Z,100736.05
2017-11-04T02:28:11.659Z,100736.56
2017-11-04T02:30:40.478Z,100729.81
2017-11-04T02:33:09.172Z,100737.60
2017-11-04T02:35:37.889Z,100738.98
2017-11-04T02:38:06.560Z,100736.11
2017-11-04T02:40:35.284Z,100735.35
2017-11-04T02:43:03.948Z,100729.46
2017-11-04T02:45:32.638Z,100723.55
2017-11-04T02:48:01.359Z,100723.64
2017-11-04T02:50:30.025Z,100725.03
2017-11-04T02:52:58.666Z,100728.97
2017-11-04T02:55:27.446Z,100720.52
2017-11-04T02:57:55.953Z,100729.70
2017-11-04T03:00:24.669Z,100724.61
2017-11-04T03:02:53.371Z,100723.84
2017-11-04T03:05:21.824Z,100720.93
2017-11-04T03:07:52.421Z,100717.64
2017-11-04T03:10:21.164Z,100717.26
2017-11-04T03:12:49.982Z,100718.70
2017-11-04T03:15:18.627Z,100715.80
2017-11-04T03:17:47.362Z,100710.81
2017-11-04T03:20:16.039Z,100705.79
2017-11-04T03:22:44.572Z,100708.03
2017-11-04T03:25:13.318Z,100710.25
2017-11-04T03:27:42.024Z,100699.23
2017-11-04T03:30:10.791Z,100695.47
2017-11-04T03:32:39.511Z,100699.38
2017-11-04T03:35:08.282Z,100696.02
2017-11-04T03:37:36.946Z,100691.03
2017-11-04T03:40:05.308Z,100693.23
2017-11-04T03:42:34.020Z,100686.07
2017-11-04T03:45:02.712Z,100686.17
2017-11-04T03:47:31.383Z,100684.54
2017-11-04T03:50:00.082Z,100688.45
2017-11-04T03:52:28.877Z,100685.98
2017-11-04T03:54:57.866Z,100687.33
2017-11-04T03:57:26.523Z,100685.73
2017-11-04T03:59:55.180Z,100686.25
2017-11-04T04:02:23.882Z,100685.06
2017-11-04T04:04:52.626Z,100683.84
2017-11-04T04:07:25.642Z,100677.94
2017-11-04T04:09:59.339Z,100671.66
2017-11-04T04:12:30.834Z,100674.22
2017-11-04T04:14:59.720Z,100675.62
2017-11-04T04:17:28.370Z,100670.13
2017-11-04T04:19:57.044Z,100676.59
2017-11-04T04:22:25.798Z,100674.55
2017-11-04T04:24:54.465Z,100668.21
2017-11-04T04:27:23.188Z,100665.37
2017-11-04T04:29:51.841Z,100660.31
2017-11-04T04:32:20.571Z,100665.08
2017-11-04T04:34:49.310Z,100662.55
2017-11-04T04:37:17.815Z,100656.67
2017-11-04T04:39:45.909Z,100662.71
2017-11-04T04:42:14.442Z,100651.27
2017-11-04T04:44:43.061Z,100653.09
2017-11-04T04:47:11.620Z,100648.90
2017-11-04T04:49:41.693Z,100645.19
2017-11-04T04:52:10.412Z,100646.08
2017-11-04T04:54:39.173Z,100641.06
2017-11-04T04:57:09.118Z,100642.05
2017-11-04T04:59:37.817Z,100637.83
2017-11-04T05:02:06.537Z,100640.48
2017-11-04T05:04:35.263Z,100639.33
2017-11-04T05:07:08.311Z,100638.14
2017-11-04T05:09:37.001Z,100639.10
2017-11-04T05:12:05.735Z,100634.05
2017-11-04T05:14:34.389Z,100638.42
2017-11-04T05:17:07.057Z,100631.23
2017-11-04T05:19:35.705Z,100631.73
2017-11-04T05:22:04.406Z,100637.81
2017-11-04T05:24:33.071Z,100627.64
2017-11-04T05:27:08.218Z,100628.06
2017-11-04T05:29:37.126Z,100623.08
2017-11-04T05:32:05.843Z,100622.75
2017-11-04T05:34:34.493Z,100617.25
2017-11-04T05:37:05.756Z,100614.34
2017-11-04T05:39:34.466Z,100615.23
2017-11-04T05:42:03.131Z,100611.46
2017-11-04T05:44:31.826Z,100614.91
2017-11-04T05:47:05.341Z,100618.80
2017-11-04T05:49:33.997Z,100610.34
2017-11-04T05:52:02.687Z,100609.53
2017-11-04T05:54:31.351Z,100612.56
2017-11-04T05:57:00.004Z,100607.48
2017-11-04T05:59:28.681Z,100608.86
2017-11-04T06:01:57.348Z,100608.86
2017-11-04T06:04:25.912Z,100608.50
2017-11-04T06:06:54.560Z,100610.22
2017-11-04T06:09:23.323Z,100607.31
2017-11-04T06:11:51.977Z,100617.12
2017-11-04T06:14:20.665Z,100615.91
2017-11-04T06:16:49.321Z,100614.59
2017-11-04T06:19:18.004Z,100614.20
2017-11-04T06:21:46.699Z,100613.83
2017-11-04T06:24:15.350Z,100609.19
2017-11-04T06:26:44.058Z,100610.08
2017-11-04T06:29:12.714Z,100605.84
2017-11-04T06:31:41.418Z,100606.28
2017-11-04T06:34:10.131Z,100614.77
2017-11-04T06:36:38.802Z,100611.42
2017-11-04T06:39:07.496Z,100607.62
2017-11-04T06:41:36.183Z,100617.45
2017-11-04T06:44:04.871Z,100619.59
2017-11-04T06:46:33.587Z,100620.45
2017-11-04T06:49:02.262Z,100616.65
2017-11-04T06:51:30.983Z,100612.81
2017-11-04T06:53:59.631Z,100614.13
2017-11-04T06:56:29.073Z,100613.32
2017-11-04T06:58:57.760Z,100619.70
2017-11-04T07:01:26.441Z,100621.43
2017-11-04T07:03:55.198Z,100615.45
2017-11-04T07:06:23.859Z,100617.56
2017-11-04T07:08:52.574Z,100614.18
2017-11-04T07:11:21.223Z,100615.88
2017-11-04T07:13:49.874Z,100615.81
2017-11-04T07:16:18.586Z,100604.77
2017-11-04T07:18:47.225Z,100606.02
2017-11-04T07:21:15.936Z,100604.32
2017-11-04T07:23:44.600Z,100599.98
2017-11-04T07:26:13.335Z,100600.81
2017-11-04T07:28:42.189Z,100603.28
2017-11-04T07:31:11.064Z,100598.58
2017-11-04T07:33:39.797Z,100601.97
2017-11-04T07:36:08.496Z,100610.02
2017-11-04T07:38:37.477Z,100600.58
2017-11-04T07:41:06.615Z,100600.06
2017-11-04T07:43:35.585Z,100595.34
2017-11-04T07:46:04.329Z,100597.42
2017-11-04T07:48:33.037Z,100600.33
2017-11-04T07:51:01.778Z,100599.02
2017-11-04T07:53:30.467Z,100589.57
2017-11-04T07:55:59.136Z,100599.73
2017-11-04T07:58:27.868Z,100588.17
2017-11-04T08:00:56.390Z,100594.05
2017-11-04T08:03:25.063Z,100593.06
2017-11-04T08:06:03.397Z,100586.23
2017-11-04T08:08:33.259Z,100586.11
2017-11-04T08:11:01.962Z,100584.80
2017-11-04T08:13:30.470Z,100577.86
2017-11-04T08:15:59.233Z,100579.02
2017-11-04T08:18:27.883Z,100575.19
2017-11-04T08:20:56.587Z,100570.39
2017-11-04T08:23:25.239Z,100566.88
2017-11-04T08:25:53.935Z,100560.45
2017-11-04T08:28:22.581Z,100559.08
2017-11-04T08:30:51.305Z,100558.22
2017-11-04T08:33:20.121Z,100553.91
2017-11-04T08:35:48.832Z,100552.53
2017-11-04T08:38:17.533Z,100552.46
2017-11-04T08:40:46.278Z,100551.92
2017-11-04T08:43:14.847Z,100539.58
2017-11-04T08:45:43.430Z,100541.24
2017-11-04T08:48:11.945Z,100542.84
2017-11-04T08:50:40.511Z,100538.87
2017-11-04T08:53:09.028Z,100523.02
2017-11-04T08:55:37.584Z,100520.94
2017-11-04T08:58:06.248Z,100517.00
2017-11-04T09:00:35.335Z,100515.97
2017-11-04T09:03:05.962Z,100515.87
2017-11-04T09:05:34.671Z,100517.84
2017-11-04T09:08:03.357Z,100514.39
2017-11-04T09:10:32.235Z,100519.89
2017-11-04T09:13:00.927Z,100520.20
2017-11-04T09:15:29.573Z,100516.71
2017-11-04T09:17:58.227Z,100509.80
2017-11-04T09:20:26.966Z,100508.91
2017-11-04T09:22:55.677Z,100509.22
2017-11-04T09:25:24.403Z,100521.00
2017-11-04T09:27:53.255Z,100509.80
2017-11-04T09:30:22.668Z,100504.16
2017-11-04T09:32:51.911Z,100506.55
2017-11-04T09:35:20.589Z,100500.47
2017-11-04T09:37:49.332Z,100490.54
2017-11-04T09:40:18.023Z,100475.05
2017-11-04T09:42:46.735Z,100468.05
2017-11-04T09:45:15.408Z,100467.95
2017-11-04T09:47:44.259Z,100470.33
2017-11-04T09:50:12.996Z,100472.30
2017-11-04T09:52:47.810Z,100475.98
2017-11-04T09:55:16.459Z,100484.36
2017-11-04T09:57:45.142Z,100479.92
2017-11-04T10:00:13.885Z,100480.64
2017-11-04T10:02:42.544Z,100475.83
2017-11-04T10:05:11.203Z,100469.66
2017-11-04T10:07:40.226Z,100472.48
2017-11-04T10:10:08.878Z,100467.25
2017-11-04T10:12:37.609Z,100455.92
2017-11-04T10:15:06.342Z,100455.81
2017-11-04T10:17:35.066Z,100461.20
2017-11-04T10:20:03.802Z,100447.00
2017-11-04T10:22:32.534Z,100439.17
2017-11-04T10:25:01.183Z,100435.96
2017-11-04T10:27:30.292Z,100442.14
2017-11-04T10:29:58.985Z,100434.80
2017-11-04T10:32:27.681Z,100423.52
2017-11-04T10:34:56.386Z,100422.95
2017-11-04T10:37:25.039Z,100416.36
2017-11-04T10:39:53.474Z,100408.05
2017-11-04T10:42:21.643Z,100401.95
2017-11-04T10:44:50.337Z,100397.13
2017-11-04T10:47:18.930Z,100402.46
2017-11-04T10:49:47.613Z,100393.78
2017-11-04T10:52:16.314Z,100389.78
2017-11-04T10:54:44.963Z,100390.53
2017-11-04T10:57:13.668Z,100385.24
2017-11-04T10:59:42.322Z,100380.03
2017-11-04T11:02:10.996Z,100376.86
2017-11-04T11:04:39.715Z,100369.50
2017-11-04T11:07:11.168Z,100362.97
2017-11-04T11:09:39.940Z,100367.64
2017-11-04T11:12:08.474Z,100357.72
2017-11-04T11:14:37.191Z,100360.16
2017-11-04T11:17:07.960Z,100360.08
2017-11-04T11:19:36.610Z,100353.51
2017-11-04T11:22:05.314Z,100347.38
2017-11-04T11:24:34.016Z,100343.41
2017-11-04T11:27:08.984Z,100336.88
2017-11-04T11:29:37.948Z,100335.47
2017-11-04T11:32:06.751Z,100337.50
2017-11-04T11:34:35.254Z,100332.73
2017-11-04T11:37:08.388Z,100326.16
2017-11-04T11:39:37.043Z,100319.62
2017-11-04T11:42:05.801Z,100325.03
2017-11-04T11:44:34.528Z,100320.23
2017-11-04T11:47:07.094Z,100320.06
2017-11-04T11:49:35.795Z,100318.61
2017-11-04T11:52:04.617Z,100314.68
2017-11-04T11:54:33.363Z,100306.86
2017-11-04T11:57:05.620Z,100303.78
2017-11-04T11:59:34.583Z,100292.06
2017-11-04T12:02:03.290Z,100289.00
2017-11-04T12:04:31.942Z,100293.09
2017-11-04T12:07:00.642Z,100280.22
2017-11-04T12:09:29.309Z,100279.24
2017-11-04T12:11:58.097Z,100273.57
2017-11-04T12:14:26.802Z,100269.13
2017-11-04T12:16:55.455Z,100264.70
2017-11-04T12:19:24.171Z,100260.80
2017-11-04T12:21:52.856Z,100261.95
2017-11-04T12:24:21.510Z,100256.27
2017-11-04T12:26:50.223Z,100254.03
2017-11-04T12:29:18.934Z,100247.48
2017-11-04T12:31:47.769Z,100249.03
2017-11-04T12:34:16.422Z,100245.51
2017-11-04T12:36:45.155Z,100241.52
2017-11-04T12:39:13.804Z,100238.33
2017-11-04T12:41:42.535Z,100228.73
2017-11-04T12:44:11.316Z,100223.59
2017-11-04T12:46:39.978Z,100227.23
2017-11-04T12:49:08.563Z,100227.97
2017-11-04T12:51:37.261Z,100225.72
2017-11-04T12:54:06.007Z,100222.60
2017-11-04T12:56:34.687Z,100215.71
2017-11-04T12:59:03.485Z,100214.75
2017-11-04T13:01:32.147Z,100210.30
2017-11-04T13:04:00.871Z,100211.55
2017-11-04T13:06:29.539Z,100203.75
2017-11-04T13:08:58.243Z,100201.00
2017-11-04T13:11:26.892Z,100198.38
2017-11-04T13:13:55.593Z,100193.60
2017-11-04T13:16:24.250Z,100186.63
2017-11-04T13:18:52.954Z,100181.86
2017-11-04T13:21:21.310Z,100179.98
2017-11-04T13:23:50.078Z,100175.71
2017-11-04T13:26:18.736Z,100172.59
2017-11-04T13:28:47.530Z,100172.59
2017-11-04T13:31:16.212Z,100167.77
2017-11-04T13:33:44.908Z,100173.59
2017-11-04T13:36:13.655Z,100171.84
2017-11-04T13:38:42.319Z,100177.34
2017-11-04T13:41:11.032Z,100173.08
2017-11-04T13:43:39.715Z,100171.25
2017-11-04T13:46:08.463Z,100163.86
2017-11-04T13:48:37.137Z,100167.76
2017-11-04T13:51:05.850Z,100170.19
2017-11-04T13:53:34.633Z,100160.37
2017-11-04T13:56:03.341Z,100154.81
2017-11-04T13:58:31.986Z,100161.20
2017-11-04T14:01:05.042Z,100157.73
2017-11-04T14:06:39.451Z,100156.47
2017-11-04T14:09:26.825Z,100153.47
2017-11-04T14:12:05.158Z,100154.76
2017-11-04T14:14:49.317Z,100141.05
2017-11-04T14:20:23.187Z,100126.97
2017-11-04T14:23:06.968Z,100133.95
2017-11-04T14:25:52.624Z,100130.09
2017-11-04T14:28:22.351Z,100128.81
2017-11-04T14:30:51.116Z,100137.84
2017-11-04T14:33:19.771Z,100134.04
2017-11-04T14:35:48.502Z,100137.53
2017-11-04T14:38:17.167Z,100132.39
2017-11-04T14:40:45.839Z,100132.02
2017-11-04T14:43:14.564Z,100128.27
2017-11-04T14:45:43.293Z,100125.74
2017-11-04T14:48:11.998Z,100121.02
2017-11-04T14:50:40.656Z,100121.06
2017-11-04T14:53:09.363Z,100122.39
2017-11-04T14:55:38.039Z,100113.02
2017-11-04T14:58:06.563Z,100114.75
2017-11-04T15:00:35.268Z,100117.92
2017-11-04T15:03:03.984Z,100117.88
2017-11-04T15:05:32.670Z,100114.94
2017-11-04T15:08:01.295Z,100109.13
2017-11-04T15:10:29.959Z,100113.39
2017-11-04T15:12:58.670Z,100106.55
2017-11-04T15:15:27.343Z,100096.38
2017-11-04T15:17:56.137Z,100093.90
2017-11-04T15:20:24.806Z,100087.58
2017-11-04T15:22:53.483Z,100093.99
2017-11-04T15:25:22.189Z,100092.36
2017-11-04T15:27:50.931Z,100095.02
2017-11-04T15:30:19.716Z,100095.11
2017-11-04T15:32:48.422Z,100089.56
2017-11-04T15:35:17.155Z,100088.74
2017-11-04T15:37:45.814Z,100087.59
2017-11-04T15:40:14.509Z,100085.17
2017-11-04T15:42:43.261Z,100079.22
2017-11-04T15:45:11.982Z,100076.66
2017-11-04T15:47:40.707Z,100076.29
2017-11-04T15:50:09.084Z,100060.30
2017-11-04T15:52:37.745Z,100068.36
2017-11-04T15:55:06.479Z,100063.92
2017-11-04T15:57:35.182Z,100061.35
2017-11-04T16:00:03.935Z,100056.72
2017-11-04T16:02:32.663Z,100059.45
2017-11-04T16:05:01.379Z,100037.81
2017-11-04T16:07:30.043Z,100029.75
2017-11-04T16:09:58.718Z,100030.30
2017-11-04T16:12:27.405Z,100028.28
2017-11-04T16:14:56.066Z,100033.94
2017-11-04T16:17:24.796Z,100043.47
2017-11-04T16:19:54.907Z,100036.28
2017-11-04T16:22:25.357Z,100023.63
2017-11-04T16:24:54.069Z,100022.03
2017-11-04T16:27:22.802Z,100029.36
2017-11-04T16:29:51.566Z,100029.11
2017-11-04T16:32:20.303Z,100020.26
2017-11-04T16:34:48.970Z,100016.14
2017-11-04T16:37:17.644Z,100007.27
2017-11-04T16:39:46.356Z,100003.92
2017-11-04T16:42:20.981Z,100001.46
2017-11-04T16:45:01.804Z,99992.63
2017-11-04T16:47:33.362Z,99997.02
2017-11-04T16:50:07.017Z,99998.03
2017-11-04T16:52:35.864Z,100002.29
2017-11-04T16:55:05.148Z,100010.55
2017-11-04T16:57:33.834Z,100013.16
2017-11-04T17:00:02.573Z,100013.25
2017-11-04T17:02:31.235Z,100014.17
2017-11-04T17:04:59.731Z,100022.37
2017-11-04T17:07:28.404Z,100016.91
2017-11-04T17:10:10.095Z,100028.09
2017-11-04T17:12:54.829Z,100039.31
2017-11-04T17:15:44.546Z,100029.55
2017-11-04T17:18:19.852Z,100026.17
2017-11-04T17:23:41.528Z,100010.92
2017-11-04T17:26:10.954Z,100014.81
2017-11-04T17:28:51.607Z,100013.17
2017-11-04T17:31:22.989Z,100014.95
2017-11-04T17:34:05.796Z,100009.05
2017-11-04T17:36:43.141Z,100004.00
2017-11-04T17:39:19.303Z,100008.36
2017-11-04T17:41:48.616Z,100001.55
2017-11-04T17:44:20.761Z,99993.85
2017-11-04T17:46:58.428Z,99998.25
2017-11-04T17:49:37.979Z,99999.98
2017-11-04T17:52:11.175Z,99994.95
2017-11-04T17:54:52.064Z,99988.67
2017-11-04T17:57:32.788Z,99984.88
2017-11-04T18:00:12.002Z,99981.16
2017-11-04T18:02:50.669Z,99984.24
2017-11-04T18:05:33.282Z,99982.64
2017-11-04T18:08:17.390Z,99978.84
2017-11-04T18:10:57.131Z,99962.72
2017-11-04T18:13:40.192Z,99971.28
2017-11-04T18:16:21.956Z,99965.92
2017-11-04T18:18:59.864Z,99960.47
2017-11-04T18:21:36.069Z,99950.64
2017-11-04T18:24:14.444Z,99952.43
2017-11-04T18:26:52.313Z,99960.67
2017-11-04T18:29:31.561Z,99953.02
2017-11-04T18:32:10.580Z,99959.52
2017-11-04T18:34:53.270Z,99943.41
2017-11-04T18:37:28.431Z,99938.00
2017-11-04T18:40:03.774Z,99948.27
2017-11-04T18:42:43.595Z,99958.56
2017-11-04T18:45:25.570Z,99948.81
2017-11-04T18:47:56.196Z,99944.64
2017-11-04T18:50:24.911Z,99942.59
2017-11-04T18:52:57.330Z,99943.91
2017-11-04T18:55:26.124Z,99945.28
2017-11-04T18:57:54.867Z,99946.24
2017-11-04T19:00:32.465Z,99934.34
2017-11-04T19:03:13.126Z,99940.84
2017-11-04T19:05:52.076Z,99927.26
2017-11-04T19:08:34.243Z,99933.30
2017-11-04T19:11:15.085Z,99931.28
2017-11-04T19:13:57.225Z,99933.11
2017-11-04T19:16:37.180Z,99934.52
2017-11-04T19:19:12.785Z,99926.01
2017-11-04T19:21:49.684Z,99928.30
2017-11-04T19:24:23.494Z,99923.59
2017-11-04T19:26:59.190Z,99920.62
2017-11-04T19:29:37.555Z,99908.77
2017-11-04T19:32:09.795Z,99921.17
2017-11-04T19:34:53.864Z,99917.41
2017-11-04T19:37:31.148Z,99919.15
2017-11-04T19:40:13.977Z,99914.94
2017-11-04T19:42:49.776Z,99911.55
2017-11-04T19:45:27.483Z,99913.33
2017-11-04T19:48:02.568Z,99908.21
2017-11-04T19:50:34.684Z,99912.05
2017-11-04T19:53:16.808Z,99912.09
2017-11-04T19:55:56.392Z,99908.25
2017-11-04T19:58:29.176Z,99903.09
2017-11-04T20:01:03.367Z,99909.49
2017-11-04T20:03:33.294Z,99903.04
2017-11-04T20:06:10.557Z,99905.19
2017-11-04T20:08:51.641Z,99912.79
2017-11-04T20:11:31.392Z,99905.10
2017-11-04T20:14:11.759Z,99905.92
2017-11-04T20:16:48.319Z,99902.82
2017-11-04T20:19:29.511Z,99901.04
2017-11-04T20:22:09.358Z,99896.73
2017-11-04T20:24:50.726Z,99888.97
2017-11-04T20:27:35.202Z,99884.16
2017-11-04T20:30:20.803Z,99879.44
2017-11-04T20:33:04.252Z,99880.30
2017-11-04T20:35:50.440Z,99880.67
2017-11-04T20:41:27.525Z,99866.30
2017-11-04T20:44:11.912Z,99879.08
2017-11-04T20:47:02.234Z,99880.68
2017-11-04T20:49:47.467Z,99877.61
2017-11-04T20:52:31.815Z,99869.47
2017-11-04T20:55:02.884Z,99865.56
2017-11-04T20:57:32.011Z,99862.36
2017-11-04T21:00:00.714Z,99859.66
2017-11-04T21:02:29.442Z,99860.03
2017-11-04T21:04:58.114Z,99851.42
2017-11-04T21:07:26.894Z,99850.86
2017-11-04T21:09:55.548Z,99852.51
2017-11-04T21:12:24.234Z,99854.11
2017-11-04T21:14:52.902Z,99847.15
2017-11-04T21:17:21.599Z,99850.91
2017-11-04T21:19:50.245Z,99849.89
2017-11-04T21:22:18.987Z,99844.31
2017-11-04T21:24:49.595Z,99835.28
2017-11-04T21:27:19.603Z,99836.00
2017-11-04T21:29:48.395Z,99832.94
2017-11-04T21:32:18.080Z,99831.97
2017-11-04T21:34:46.794Z,99831.92
2017-11-04T21:37:15.454Z,99830.96
2017-11-04T21:39:44.185Z,99824.83
2017-11-04T21:42:12.831Z,99822.61
2017-11-04T21:44:41.483Z,99823.02
2017-11-04T21:47:10.174Z,99819.08
2017-11-04T21:49:38.829Z,99815.97
2017-11-04T21:52:07.534Z,99814.64
2017-11-04T21:54:36.213Z,99815.31
2017-11-04T21:57:08.591Z,99814.91
2017-11-04T21:59:37.255Z,99810.91
2017-11-04T22:02:05.959Z,99811.72
2017-11-04T22:04:34.622Z,99812.81
2017-11-04T22:07:03.363Z,99807.64
2017-11-04T22:09:32.051Z,99810.98
2017-11-04T22:12:00.745Z,99816.47
2017-11-04T22:14:29.451Z,99815.50
2017-11-04T22:16:58.147Z,99817.97
2017-11-04T22:19:26.806Z,99817.41
2017-11-04T22:21:55.535Z,99816.07
2017-11-04T22:24:24.198Z,99814.73
2017-11-04T22:26:52.863Z,99816.75
2017-11-04T22:29:21.610Z,99813.27
2017-11-04T22:31:50.277Z,99816.61
2017-11-04T22:34:18.987Z,99817.80
2017-11-04T22:36:47.646Z,99816.88
2017-11-04T22:39:16.414Z,99817.27
2017-11-04T22:41:45.098Z,99815.06
2017-11-04T22:44:13.743Z,99817.13
2017-11-04T22:46:42.463Z,99814.88
2017-11-04T22:49:11.177Z,99822.06
2017-11-04T22:51:39.837Z,99829.61
2017-11-04T22:54:08.554Z,99824.38
2017-11-04T22:56:37.085Z,99820.90
2017-11-04T22:59:05.766Z,99819.55
2017-11-04T23:01:34.503Z,99818.25
2017-11-04T23:04:03.207Z,99821.49
2017-11-04T23:06:32.017Z,99817.95
2017-11-04T23:09:00.722Z,99818.69
2017-11-04T23:11:29.391Z,99813.00
2017-11-04T23:13:58.102Z,99812.10
2017-11-04T23:16:26.801Z,99811.55
2017-11-04T23:18:55.625Z,99814.02
2017-11-04T23:21:24.327Z,99819.88
2017-11-04T23:23:52.978Z,99821.47
2017-11-04T23:26:21.638Z,99811.98
2017-11-04T23:28:50.357Z,99808.44
2017-11-04T23:31:19.302Z,99807.09
2017-11-04T23:33:48.198Z,99808.23
2017-11-04T23:36:16.955Z,99803.41
2017-11-04T23:38:45.627Z,99808.80
2017-11-04T23:41:14.339Z,99809.98
2017-11-04T23:43:43.002Z,99806.48
2017-11-04T23:46:11.658Z,99808.53
2017-11-04T23:48:40.361Z,99806.28
2017-11-04T23:51:09.096Z,99809.11
2017-11-04T23:53:37.758Z,99817.58
2017-11-04T23:56:06.272Z,99809.31
2017-11-04T23:58:35.001Z,99807.11
